| Date | Time | Temp. (oF) | Dew Point (oF) | Rel. Hum. (%) | Press. (in.) | Wind Dir. | Wind Speed (mph) | Hourly Rainfall (in.) |
|
|---|---|---|---|---|---|---|---|---|---|
| 1 | 03/31 | 00:00 | 40 | 24 | 54 | 30.61 | S | 2 | 0.00 |
| 2 | 03/30 | 23:00 | 40 | 21 | 47 | 30.62 | SE | 4 | 0.00 |
| 3 | 03/30 | 22:00 | 42 | 20 | 42 | 30.62 | S | 6 | 0.00 |
| 4 | 03/30 | 21:00 | 43 | 21 | 42 | 30.60 | SSE | 4 | 0.00 |
| 5 | 03/30 | 20:00 | 45 | 23 | 43 | 30.59 | S | 5 | 0.00 |
| 6 | 03/30 | 19:00 | 46 | 22 | 39 | 30.58 | SSE | 5 | 0.00 |
| 7 | 03/30 | 18:00 | 48 | 18 | 31 | 30.57 | S | 12 | 0.00 |
| 8 | 03/30 | 17:00 | 50 | 20 | 31 | 30.57 | S | 11 | 0.00 |
| 9 | 03/30 | 16:00 | 50 | 17 | 28 | 30.57 | SSE | 6 | 0.00 |
| 10 | 03/30 | 15:00 | 48 | 17 | 29 | 30.60 | ESE | 5 | 0.00 |
| 11 | 03/30 | 14:00 | 47 | 18 | 32 | 30.62 | E | 6 | 0.00 |
| 12 | 03/30 | 13:00 | 44 | 19 | 37 | 30.64 | SSW | 6 | 0.00 |
| 13 | 03/30 | 12:00 | 42 | 18 | 39 | 30.65 | E | 4 | 0.00 |
| 14 | 03/30 | 11:00 | 38 | 17 | 44 | 30.66 | SE | 8 | 0.00 |
| 15 | 03/30 | 10:00 | 36 | 15 | 43 | 30.68 | ESE | 11 | 0.00 |
| 16 | 03/30 | 09:00 | 35 | 16 | 46 | 30.68 | ESE | 7 | 0.00 |
| 17 | 03/30 | 08:00 | 33 | 14 | 46 | 30.68 | E | 4 | 0.00 |
| 18 | 03/30 | 07:00 | 26 | 11 | 53 | 30.63 | NE | 4 | 0.00 |
| 19 | 03/30 | 06:00 | 27 | 11 | 51 | 30.60 | E | 1 | 0.00 |
| 20 | 03/30 | 05:00 | 28 | 11 | 49 | 30.60 | NNE | 3 | 0.00 |
| 21 | 03/30 | 04:00 | 29 | 12 | 49 | 30.58 | NNE | 4 | 0.00 |
| 22 | 03/30 | 03:00 | 31 | 13 | 47 | 30.58 | NE | 5 | 0.00 |
| 23 | 03/30 | 02:00 | 32 | 13 | 46 | 30.58 | NNE | 7 | 0.00 |
| 24 | 03/30 | 01:00 | 34 | 13 | 43 | 30.57 | NE | 6 | 0.00 |